Time;durP1;ratioP1;P1;durP2;ratioP2;P2;SDS_P1;SDS_P2;PMS_P1;PMS_P2;Temp;Humidity;BMP_temperature;BMP_pressure;BME280_temperature;BME280_humidity;BME280_pressure;Samples;Min_cycle;Max_cycle;Signal;HPM_P1;HPM_P2
2022/12/22 03:25:52;;;;;;;71.05;27.98;;;11.00;99.90;;;;;;5115400;28;20703;-57
2022/12/22 03:28:18;;;;;;;33.22;19.60;;;11.00;99.90;;;;;;5115142;28;20229;-55
2022/12/22 03:30:44;;;;;;;63.58;23.23;;;11.00;99.90;;;;;;5115041;28;20627;-56
2022/12/22 03:33:09;;;;;;;27.17;18.35;;;11.00;99.90;;;;;;5115002;28;20260;-55
2022/12/22 03:35:35;;;;;;;23.83;18.70;;;11.00;99.90;;;;;;5114877;28;20534;-55
2022/12/22 03:38:02;;;;;;;30.10;19.40;;;11.00;99.90;;;;;;5115106;28;20631;-55
2022/12/22 03:40:32;;;;;;;31.38;18.60;;;10.90;99.90;;;;;;5114882;28;20180;-56
2022/12/22 03:48:26;;;;;;;210.82;31.27;;;11.00;99.90;;;;;;5113856;28;20692;-55
2022/12/22 03:50:52;;;;;;;142.82;25.30;;;11.00;99.90;;;;;;5113536;28;20185;-57
2022/12/22 03:53:17;;;;;;;32.92;16.52;;;10.90;99.90;;;;;;5114735;28;20177;-55
2022/12/22 03:55:43;;;;;;;87.82;19.63;;;10.90;99.90;;;;;;5114869;28;20185;-55
2022/12/22 03:58:08;;;;;;;37.90;13.98;;;10.80;99.90;;;;;;5114410;28;20654;-54
2022/12/22 04:00:34;;;;;;;63.72;14.27;;;10.80;99.90;;;;;;5114407;28;20173;-55
2022/12/22 04:03:00;;;;;;;32.50;9.93;;;10.80;99.90;;;;;;5113347;28;20180;-56
2022/12/22 04:05:26;;;;;;;25.27;9.68;;;10.80;99.90;;;;;;5114082;28;20622;-56
2022/12/22 04:07:51;;;;;;;46.78;11.45;;;10.80;99.90;;;;;;5114694;28;20192;-57
2022/12/22 04:13:01;;;;;;;21.42;8.57;;;10.80;99.90;;;;;;5114496;28;20273;-55
2022/12/22 04:15:29;;;;;;;33.30;10.13;;;10.80;99.90;;;;;;5113649;28;20196;-56
2022/12/22 04:17:55;;;;;;;14.23;8.10;;;10.80;99.90;;;;;;5114394;28;20196;-57
2022/12/22 04:20:25;;;;;;;15.60;8.57;;;10.70;99.90;;;;;;5114290;28;20174;-56
2022/12/22 04:22:55;;;;;;;21.38;10.07;;;10.70;99.90;;;;;;5114090;28;20638;-55
2022/12/22 04:25:22;;;;;;;46.05;14.90;;;10.70;99.90;;;;;;5114008;28;20636;-57
2022/12/22 04:27:47;;;;;;;13.95;8.43;;;10.60;99.90;;;;;;5113908;28;20252;-56
2022/12/22 04:30:14;;;;;;;28.55;11.68;;;10.60;99.90;;;;;;5114166;28;20306;-54
2022/12/22 04:32:39;;;;;;;21.90;9.15;;;10.60;99.90;;;;;;5113897;28;20622;-57
2022/12/22 04:35:06;;;;;;;25.55;11.43;;;10.60;99.90;;;;;;5114025;28;20313;-55
2022/12/22 04:37:32;;;;;;;54.22;12.98;;;10.60;99.90;;;;;;5114200;28;20165;-55
2022/12/22 04:40:00;;;;;;;25.35;10.70;;;10.50;99.90;;;;;;5113820;28;20533;-57
2022/12/22 04:42:26;;;;;;;38.67;12.18;;;10.60;99.90;;;;;;5113698;28;20284;-57
2022/12/22 04:44:52;;;;;;;34.33;12.43;;;10.60;99.90;;;;;;5113980;28;20649;-57
2022/12/22 04:47:17;;;;;;;21.23;12.60;;;10.60;99.90;;;;;;5113877;28;20173;-57
2022/12/22 04:49:43;;;;;;;64.38;16.20;;;10.60;99.90;;;;;;5113560;28;20200;-55
2022/12/22 04:52:09;;;;;;;42.10;14.27;;;10.60;99.90;;;;;;5113754;28;20177;-56
2022/12/22 04:54:34;;;;;;;45.83;15.90;;;10.70;99.90;;;;;;5113624;28;20173;-57
2022/12/22 04:57:00;;;;;;;24.30;11.75;;;10.60;99.90;;;;;;5112390;28;20215;-56
2022/12/22 04:59:26;;;;;;;41.67;16.63;;;10.70;99.90;;;;;;5113547;28;20650;-55
2022/12/22 05:01:51;;;;;;;27.95;14.57;;;10.70;99.90;;;;;;5113686;28;20173;-57
2022/12/22 05:04:17;;;;;;;31.98;15.05;;;10.70;99.90;;;;;;5113631;28;20572;-55
2022/12/22 05:06:43;;;;;;;33.78;16.88;;;10.80;99.90;;;;;;5113558;28;20192;-56
2022/12/22 05:09:10;;;;;;;45.70;21.25;;;10.80;99.90;;;;;;5112273;28;20205;-57
2022/12/22 05:11:35;;;;;;;64.82;25.70;;;10.90;99.90;;;;;;5113312;28;20222;-56
2022/12/22 05:14:01;;;;;;;75.65;29.63;;;10.80;99.90;;;;;;5113576;28;20181;-56
2022/12/22 05:16:27;;;;;;;74.35;30.58;;;10.90;99.90;;;;;;5113602;28;20176;-57
2022/12/22 05:18:52;;;;;;;106.25;36.33;;;10.90;99.90;;;;;;5113540;28;20546;-56
2022/12/22 05:21:21;;;;;;;99.38;37.80;;;11.00;99.90;;;;;;5113450;28;20208;-57
2022/12/22 05:23:47;;;;;;;82.22;34.88;;;11.10;99.90;;;;;;5113349;28;20255;-56
2022/12/22 05:26:14;;;;;;;113.65;39.47;;;11.10;99.90;;;;;;5113580;28;20169;-56
2022/12/22 05:28:41;;;;;;;66.70;32.65;;;11.10;99.90;;;;;;5117177;28;20229;-57
2022/12/22 05:31:10;;;;;;;69.57;32.83;;;10.90;99.90;;;;;;5117527;28;20177;-54
2022/12/22 05:33:35;;;;;;;110.22;39.95;;;10.80;99.90;;;;;;5117695;28;20212;-54
2022/12/22 05:36:02;;;;;;;130.15;44.45;;;10.60;99.90;;;;;;5117253;28;20598;-53
2022/12/22 05:38:28;;;;;;;73.82;35.78;;;10.70;99.90;;;;;;5117133;28;20180;-53
2022/12/22 05:40:54;;;;;;;75.30;37.15;;;10.50;99.90;;;;;;5116115;28;20188;-53
2022/12/22 05:43:20;;;;;;;72.82;37.78;;;10.40;99.90;;;;;;5117404;28;20188;-53
2022/12/22 05:45:46;;;;;;;71.95;37.22;;;10.40;99.90;;;;;;5117147;28;20203;-53
2022/12/22 05:48:12;;;;;;;107.47;44.60;;;10.30;99.90;;;;;;5117080;28;20646;-53
2022/12/22 05:50:38;;;;;;;140.52;47.67;;;10.40;99.90;;;;;;5115743;28;20189;-53
2022/12/22 05:53:05;;;;;;;101.10;41.58;;;10.40;99.90;;;;;;5116884;27;20204;-53
2022/12/22 05:55:31;;;;;;;113.25;43.38;;;10.40;99.90;;;;;;5117123;28;20530;-52
2022/12/22 05:58:00;;;;;;;138.00;46.60;;;10.30;99.90;;;;;;5116849;28;20180;-51
2022/12/22 06:00:27;;;;;;;75.18;37.03;;;10.30;99.90;;;;;;5116945;28;20169;-50
2022/12/22 06:02:53;;;;;;;141.80;47.03;;;10.40;99.90;;;;;;5116422;28;20212;-55
2022/12/22 06:05:19;;;;;;;76.28;37.42;;;10.30;99.90;;;;;;5116730;28;20177;-53
2022/12/22 06:07:45;;;;;;;100.68;42.60;;;10.40;99.90;;;;;;5116569;28;20234;-54
2022/12/22 06:10:12;;;;;;;83.00;40.78;;;10.40;99.90;;;;;;5116829;28;20576;-53
2022/12/22 06:12:38;;;;;;;113.07;44.78;;;10.40;99.90;;;;;;5098448;28;20540;-54
2022/12/22 06:15:05;;;;;;;89.47;42.40;;;10.50;99.90;;;;;;5116624;27;20172;-54
2022/12/22 06:17:30;;;;;;;126.63;47.42;;;10.50;99.90;;;;;;5116510;28;20173;-55
2022/12/22 06:19:56;;;;;;;87.65;42.38;;;10.40;99.90;;;;;;5116468;28;20554;-55
2022/12/22 06:22:21;;;;;;;145.48;51.03;;;10.40;99.90;;;;;;5116675;28;20191;-54
2022/12/22 06:24:50;;;;;;;88.95;43.70;;;10.40;99.90;;;;;;5116853;28;20181;-53
2022/12/22 06:27:16;;;;;;;144.32;49.85;;;10.30;99.90;;;;;;5116698;28;20184;-54
2022/12/22 06:29:42;;;;;;;129.60;48.85;;;10.30;99.90;;;;;;5116374;28;20682;-54
2022/12/22 06:32:07;;;;;;;90.22;42.78;;;10.30;99.90;;;;;;5116643;28;20532;-53
2022/12/22 06:34:33;;;;;;;136.20;47.13;;;10.20;99.90;;;;;;5116136;28;20567;-54
2022/12/22 06:36:58;;;;;;;86.55;40.00;;;10.30;99.90;;;;;;5115175;28;20174;-52
2022/12/22 06:39:24;;;;;;;101.00;43.97;;;10.30;99.90;;;;;;5115240;28;20229;-52
2022/12/22 06:44:34;;;;;;;100.60;46.42;;;10.20;99.90;;;;;;5116428;28;20180;-52
2022/12/22 06:46:59;;;;;;;95.85;44.13;;;10.10;99.90;;;;;;5115928;28;20169;-53
2022/12/22 06:49:25;;;;;;;121.70;48.63;;;10.20;99.90;;;;;;5115702;28;20197;-51
2022/12/22 06:51:50;;;;;;;130.32;48.22;;;10.40;99.90;;;;;;5116047;28;20208;-54
2022/12/22 06:54:16;;;;;;;124.07;48.35;;;10.50;99.90;;;;;;5115894;28;20170;-54
2022/12/22 06:56:42;;;;;;;159.95;52.88;;;10.50;99.90;;;;;;5115713;28;20195;-54
2022/12/22 06:59:07;;;;;;;171.38;54.38;;;10.50;99.90;;;;;;5115701;28;20173;-53
2022/12/22 07:01:33;;;;;;;121.72;47.60;;;10.40;99.90;;;;;;5115599;28;20177;-53
2022/12/22 07:03:59;;;;;;;119.35;48.33;;;10.40;99.90;;;;;;5115457;28;20185;-52
2022/12/22 07:06:24;;;;;;;120.03;47.92;;;10.40;99.90;;;;;;5115747;28;20199;-54
2022/12/22 07:08:50;;;;;;;138.35;49.00;;;10.30;99.90;;;;;;5115611;28;20630;-54
2022/12/22 07:11:16;;;;;;;130.60;49.65;;;10.30;99.90;;;;;;5114411;28;20177;-54
2022/12/22 07:13:47;;;;;;;146.18;51.28;;;10.20;99.90;;;;;;5115547;28;20184;-54
2022/12/22 07:16:13;;;;;;;148.75;49.92;;;10.20;99.90;;;;;;5115574;28;20170;-54
2022/12/22 07:18:41;;;;;;;157.48;51.25;;;10.10;99.90;;;;;;5115502;28;20185;-56
2022/12/22 07:21:10;;;;;;;182.60;54.08;;;10.10;99.90;;;;;;5115677;28;20170;-52
2022/12/22 07:23:36;;;;;;;162.30;50.45;;;10.00;99.90;;;;;;5115704;28;20206;-54
2022/12/22 07:26:03;;;;;;;250.95;59.42;;;9.90;99.90;;;;;;5115284;28;20187;-52
2022/12/22 07:28:32;;;;;;;155.27;49.08;;;9.80;99.90;;;;;;5115262;28;20696;-55
2022/12/22 07:30:58;;;;;;;171.75;51.53;;;9.80;99.90;;;;;;5115096;28;20187;-54
2022/12/22 07:33:23;;;;;;;118.03;45.55;;;9.80;99.90;;;;;;5115179;28;20630;-55
2022/12/22 07:36:00;;;;;;;143.02;49.80;;;9.80;99.90;;;;;;5115076;28;20177;-55
2022/12/22 07:38:26;;;;;;;165.15;53.50;;;9.80;99.90;;;;;;5115105;28;20187;-54
2022/12/22 07:40:57;;;;;;;160.23;51.17;;;9.80;99.90;;;;;;5115201;28;20520;-53
2022/12/22 07:43:23;;;;;;;165.15;53.67;;;9.80;99.90;;;;;;5114659;28;20677;-52
2022/12/22 07:45:48;;;;;;;169.30;53.42;;;9.70;99.90;;;;;;5114984;28;20185;-53
2022/12/22 07:51:02;;;;;;;132.02;49.38;;;9.60;99.90;;;;;;5113959;28;20223;-53
2022/12/22 07:53:27;;;;;;;97.85;41.70;;;9.70;99.90;;;;;;5114677;28;20174;-53
2022/12/22 07:55:53;;;;;;;115.80;46.28;;;9.60;99.90;;;;;;5114480;28;20173;-53
2022/12/22 07:58:19;;;;;;;115.60;43.88;;;9.60;99.90;;;;;;5115022;28;20726;-54
2022/12/22 08:00:44;;;;;;;131.15;45.53;;;9.50;99.90;;;;;;5114653;28;20169;-53
2022/12/22 08:03:10;;;;;;;121.28;44.90;;;9.40;99.90;;;;;;5114684;28;20645;-51
2022/12/22 08:05:37;;;;;;;152.45;50.85;;;9.50;99.90;;;;;;5113340;28;20173;-54
2022/12/22 08:08:03;;;;;;;120.10;45.95;;;9.40;99.90;;;;;;5114662;28;20200;-54
2022/12/22 08:10:28;;;;;;;154.88;48.97;;;9.40;99.90;;;;;;5114371;28;20181;-54
2022/12/22 08:12:55;;;;;;;158.32;49.05;;;9.30;99.90;;;;;;5114528;28;20184;-53
2022/12/22 08:15:21;;;;;;;193.27;54.70;;;9.20;99.90;;;;;;5114669;28;20176;-54
2022/12/22 08:17:46;;;;;;;132.40;51.38;;;9.10;99.90;;;;;;5114314;28;20173;-51
2022/12/22 08:20:12;;;;;;;183.07;58.88;;;9.30;99.90;;;;;;5114268;28;20645;-53
2022/12/22 08:22:38;;;;;;;209.63;63.35;;;9.40;99.90;;;;;;5114399;28;20181;-53
2022/12/22 08:25:04;;;;;;;149.20;55.30;;;9.50;99.90;;;;;;5114073;28;20184;-53
2022/12/22 08:27:38;;;;;;;195.40;63.55;;;9.60;99.90;;;;;;5114245;28;20165;-53
2022/12/22 08:30:06;;;;;;;203.93;65.18;;;9.70;99.90;;;;;;5114088;28;20200;-54
2022/12/22 08:32:33;;;;;;;116.47;52.92;;;9.50;99.90;;;;;;5113964;28;20173;-55
2022/12/22 08:34:58;;;;;;;139.80;56.65;;;9.70;99.90;;;;;;5113989;28;20187;-53
2022/12/22 08:37:32;;;;;;;222.80;68.70;;;9.80;99.90;;;;;;5113863;28;20690;-53
2022/12/22 08:40:03;;;;;;;260.52;72.38;;;9.80;99.90;;;;;;5114191;28;20184;-52
2022/12/22 08:42:29;;;;;;;143.95;56.33;;;9.90;99.90;;;;;;5113959;28;20220;-52
2022/12/22 08:44:55;;;;;;;173.75;57.28;;;9.90;99.90;;;;;;5113924;28;20177;-52
2022/12/22 08:47:21;;;;;;;152.27;52.83;;;9.90;99.90;;;;;;5113846;28;20169;-53
2022/12/22 08:49:48;;;;;;;129.68;49.90;;;10.00;99.90;;;;;;5113771;28;20209;-53
2022/12/22 08:52:14;;;;;;;159.07;54.90;;;9.90;99.90;;;;;;5113822;28;20181;-53
2022/12/22 08:54:40;;;;;;;121.85;49.83;;;9.90;99.90;;;;;;5114159;28;20176;-54
2022/12/22 08:57:06;;;;;;;106.95;48.03;;;9.90;99.90;;;;;;5113847;28;20535;-53
2022/12/22 08:59:31;;;;;;;184.55;58.25;;;9.90;99.90;;;;;;5113858;28;20181;-54
2022/12/22 09:01:57;;;;;;;101.63;47.20;;;10.00;99.90;;;;;;5113163;28;20180;-54
2022/12/22 09:04:24;;;;;;;108.28;48.28;;;10.00;99.90;;;;;;5113613;28;20200;-53
2022/12/22 09:06:52;;;;;;;118.13;50.53;;;10.00;99.90;;;;;;5113516;28;20260;-54
2022/12/22 09:09:19;;;;;;;148.93;53.75;;;10.00;99.90;;;;;;5113731;28;20197;-53
2022/12/22 09:11:45;;;;;;;205.50;57.70;;;10.10;99.90;;;;;;5113939;28;20189;-53
2022/12/22 09:14:11;;;;;;;69.88;39.35;;;10.10;99.90;;;;;;5113413;28;20222;-54
2022/12/22 09:16:38;;;;;;;73.63;37.95;;;9.90;99.90;;;;;;5113583;28;20173;-52
2022/12/22 09:19:05;;;;;;;70.13;37.97;;;10.00;99.90;;;;;;5113568;28;20173;-50
2022/12/22 09:21:31;;;;;;;69.65;35.22;;;9.90;99.90;;;;;;5113319;28;20184;-53
2022/12/22 09:23:57;;;;;;;54.40;31.42;;;10.00;99.90;;;;;;5113579;28;20176;-55
2022/12/22 09:26:25;;;;;;;54.13;31.48;;;10.20;99.90;;;;;;5113491;28;20176;-55
2022/12/22 09:28:51;;;;;;;53.72;31.33;;;10.10;99.90;;;;;;5113434;28;20677;-58
2022/12/22 09:31:19;;;;;;;47.85;31.25;;;9.90;99.90;;;;;;5113539;28;20177;-55
2022/12/22 09:33:44;;;;;;;50.63;30.00;;;9.90;99.90;;;;;;5113275;28;20237;-53
2022/12/22 09:36:13;;;;;;;49.33;30.95;;;10.00;99.90;;;;;;5113604;28;20268;-55
2022/12/22 09:38:40;;;;;;;46.20;30.15;;;10.20;99.90;;;;;;5113465;28;20188;-56
2022/12/22 09:41:26;;;;;;;38.92;27.65;;;10.20;99.90;;;;;;5113567;28;20299;-55
2022/12/22 09:43:52;;;;;;;45.28;29.33;;;10.20;99.90;;;;;;5112926;28;20250;-55
2022/12/22 09:46:24;;;;;;;44.35;29.90;;;10.30;99.90;;;;;;5113218;28;20634;-53
2022/12/22 09:48:52;;;;;;;41.38;28.02;;;10.30;99.90;;;;;;5113350;28;20592;-54
2022/12/22 09:51:18;;;;;;;33.88;26.55;;;10.30;99.90;;;;;;5113278;28;20186;-56
2022/12/22 09:53:46;;;;;;;37.78;26.13;;;10.20;99.90;;;;;;5113094;28;20634;-55
2022/12/22 09:56:15;;;;;;;35.70;27.02;;;10.30;99.90;;;;;;5113147;28;20256;-52
2022/12/22 09:58:42;;;;;;;41.50;27.58;;;10.20;99.90;;;;;;5113160;28;20714;-54
2022/12/22 10:01:39;;;;;;;38.58;27.75;;;10.20;99.90;;;;;;5113152;28;20197;-52
2022/12/22 10:04:21;;;;;;;34.53;27.02;;;10.30;99.90;;;;;;5113307;28;20169;-52
2022/12/22 10:07:05;;;;;;;37.72;26.92;;;10.20;99.90;;;;;;5113063;28;20182;-53
2022/12/22 10:09:31;;;;;;;37.28;27.25;;;10.10;99.90;;;;;;5113221;28;20602;-53
2022/12/22 10:12:00;;;;;;;38.13;28.42;;;10.20;99.90;;;;;;5113162;28;20173;-55
2022/12/22 10:14:32;;;;;;;48.38;31.85;;;10.20;99.90;;;;;;5114484;28;20546;-54
2022/12/22 10:17:17;;;;;;;42.08;31.48;;;10.10;99.90;;;;;;5116899;28;20169;-54
2022/12/22 10:19:44;;;;;;;54.10;34.53;;;10.10;99.90;;;;;;5116476;28;20176;-54
2022/12/22 10:22:21;;;;;;;50.97;36.45;;;10.20;99.90;;;;;;5117085;28;20250;-51
2022/12/22 10:24:46;;;;;;;64.63;42.33;;;10.20;99.90;;;;;;5116609;28;20707;-51
2022/12/22 10:27:12;;;;;;;55.72;40.05;;;10.10;99.90;;;;;;5116415;28;20260;-54
2022/12/22 10:29:38;;;;;;;57.08;40.38;;;10.10;99.90;;;;;;5116323;28;20199;-55
2022/12/22 10:32:12;;;;;;;57.10;41.10;;;10.30;99.90;;;;;;5116167;28;20173;-54
2022/12/22 10:35:00;;;;;;;56.80;40.65;;;10.10;99.90;;;;;;5116522;28;20176;-53
2022/12/22 10:37:37;;;;;;;63.45;41.53;;;10.00;99.90;;;;;;5116434;28;20166;-53
2022/12/22 10:40:18;;;;;;;64.32;41.05;;;9.90;99.90;;;;;;5116188;28;20173;-54
2022/12/22 10:42:56;;;;;;;63.92;41.47;;;10.00;99.90;;;;;;5116270;28;20340;-53
2022/12/22 10:45:25;;;;;;;54.25;38.30;;;9.90;99.90;;;;;;5116215;28;20221;-54
2022/12/22 10:47:53;;;;;;;51.17;37.35;;;10.00;99.90;;;;;;5116035;28;20626;-53
2022/12/22 10:50:20;;;;;;;46.47;33.95;;;10.00;99.90;;;;;;5114660;28;20554;-51
2022/12/22 10:52:57;;;;;;;39.13;30.40;;;10.00;99.90;;;;;;5114635;28;20264;-54
2022/12/22 10:55:28;;;;;;;39.30;29.88;;;10.00;99.90;;;;;;5116023;28;20169;-53
2022/12/22 10:58:09;;;;;;;33.70;26.63;;;10.10;99.90;;;;;;5115886;28;20177;-52
2022/12/22 11:00:40;;;;;;;33.17;26.80;;;10.10;99.90;;;;;;5115642;28;20248;-53
2022/12/22 11:03:10;;;;;;;28.45;25.27;;;10.20;99.90;;;;;;5115765;28;20177;-50
2022/12/22 11:05:36;;;;;;;28.73;23.85;;;10.20;99.90;;;;;;5115581;28;20200;-53
2022/12/22 11:08:19;;;;;;;27.90;24.75;;;10.20;99.90;;;;;;5115397;28;20227;-53
2022/12/22 11:10:50;;;;;;;31.98;25.40;;;10.40;99.90;;;;;;5115693;28;20177;-53
2022/12/22 11:13:45;;;;;;;27.85;24.73;;;10.30;99.90;;;;;;5115553;28;20196;-54
2022/12/22 11:16:42;;;;;;;28.98;23.85;;;10.40;99.90;;;;;;5115720;28;20169;-52
2022/12/22 11:19:29;;;;;;;26.60;23.65;;;10.50;99.90;;;;;;5083662;27;20215;-55
2022/12/22 11:22:16;;;;;;;26.27;23.52;;;10.60;99.90;;;;;;5115409;28;20169;-53
2022/12/22 11:25:11;;;;;;;25.75;21.83;;;10.60;99.90;;;;;;5115211;28;20177;-54
2022/12/22 11:27:49;;;;;;;23.17;20.40;;;10.50;99.90;;;;;;5042327;28;20256;-54
2022/12/22 11:30:22;;;;;;;23.88;20.02;;;10.50;99.90;;;;;;5115253;28;20642;-54
2022/12/22 11:32:53;;;;;;;21.25;18.27;;;10.40;99.90;;;;;;5115459;28;20252;-51
2022/12/22 11:35:40;;;;;;;18.30;16.30;;;10.50;99.90;;;;;;5115221;28;20193;-51
2022/12/22 11:38:45;;;;;;;23.13;16.48;;;10.50;99.90;;;;;;5114516;28;20272;-54
2022/12/22 11:41:41;;;;;;;15.30;13.70;;;10.50;99.90;;;;;;5102539;28;20192;-51
2022/12/22 11:45:02;;;;;;;16.13;14.13;;;10.50;99.90;;;;;;5114950;28;20230;-54
2022/12/22 11:47:40;;;;;;;14.95;13.35;;;10.50;99.90;;;;;;5032168;28;20211;-53
2022/12/22 11:50:27;;;;;;;17.00;13.63;;;10.60;99.90;;;;;;5104872;28;20219;-53
2022/12/22 11:53:30;;;;;;;16.95;13.95;;;10.70;99.90;;;;;;5114814;28;20170;-51
2022/12/22 11:56:16;;;;;;;15.77;13.02;;;10.70;99.90;;;;;;5115153;28;20247;-51
2022/12/22 11:59:03;;;;;;;14.23;11.98;;;10.60;99.90;;;;;;5114814;28;20169;-53
2022/12/22 12:01:56;;;;;;;14.77;11.35;;;10.70;99.90;;;;;;5115051;28;20176;-53
2022/12/22 12:04:59;;;;;;;12.35;10.65;;;10.80;99.90;;;;;;5114594;28;20169;-54
2022/12/22 12:07:43;;;;;;;11.45;10.25;;;10.90;99.90;;;;;;5114540;28;20196;-52
2022/12/22 12:10:25;;;;;;;11.77;10.57;;;11.00;99.90;;;;;;5114246;28;20208;-50
2022/12/22 12:13:27;;;;;;;12.88;10.10;;;11.10;99.90;;;;;;5114221;28;20252;-51
2022/12/22 12:16:14;;;;;;;14.80;10.07;;;11.10;99.90;;;;;;5114392;28;20212;-52
2022/12/22 12:19:02;;;;;;;10.55;9.35;;;11.20;99.90;;;;;;5114232;28;20226;-52
2022/12/22 12:21:31;;;;;;;12.88;9.65;;;11.20;99.90;;;;;;5114307;28;20176;-52
2022/12/22 12:24:26;;;;;;;14.68;9.52;;;11.20;99.90;;;;;;5114216;28;20179;-50
2022/12/22 12:27:24;;;;;;;13.13;9.45;;;11.20;99.90;;;;;;5100311;28;20214;-53
2022/12/22 12:30:08;;;;;;;13.32;10.73;;;11.20;99.90;;;;;;5110857;28;20700;-53
2022/12/22 12:32:39;;;;;;;12.63;11.18;;;11.20;99.90;;;;;;5114098;28;20169;-53
2022/12/22 12:35:44;;;;;;;14.10;10.60;;;11.20;99.90;;;;;;5114037;28;20663;-53
2022/12/22 12:38:44;;;;;;;12.05;10.80;;;11.30;99.90;;;;;;5109774;28;20302;-50
2022/12/22 12:41:28;;;;;;;11.77;10.63;;;11.20;99.90;;;;;;5099585;28;20673;-53
2022/12/22 12:43:55;;;;;;;12.63;10.13;;;11.10;99.90;;;;;;5114285;28;20207;-52
2022/12/22 12:46:45;;;;;;;12.52;10.18;;;11.10;99.90;;;;;;5113940;28;20177;-52
2022/12/22 12:49:32;;;;;;;9.80;8.90;;;11.10;99.90;;;;;;5101639;28;20205;-52
2022/12/22 12:52:00;;;;;;;12.18;9.35;;;11.20;99.90;;;;;;5113679;28;20181;-53
2022/12/22 12:54:29;;;;;;;11.10;8.88;;;11.20;99.90;;;;;;5113853;28;20180;-51
2022/12/22 12:57:08;;;;;;;9.20;8.18;;;11.20;99.90;;;;;;5114035;28;20243;-51
2022/12/22 12:59:40;;;;;;;11.55;8.38;;;11.20;99.90;;;;;;5113999;28;20169;-52
2022/12/22 13:02:30;;;;;;;10.32;7.82;;;11.30;99.90;;;;;;5113917;28;20173;-54
2022/12/22 13:05:12;;;;;;;10.60;7.68;;;11.20;99.90;;;;;;5105917;28;20181;-54
2022/12/22 13:08:13;;;;;;;11.45;6.80;;;11.10;99.90;;;;;;5113676;28;20173;-53
2022/12/22 13:10:40;;;;;;;9.65;7.18;;;11.10;99.90;;;;;;5113441;28;20203;-54
2022/12/22 13:13:26;;;;;;;8.68;6.35;;;11.10;99.90;;;;;;5113783;28;20256;-53
2022/12/22 13:16:09;;;;;;;8.73;6.32;;;11.10;99.90;;;;;;5113648;28;20203;-53
2022/12/22 13:18:42;;;;;;;10.85;6.55;;;11.00;99.90;;;;;;5113609;28;20568;-53
2022/12/22 13:21:24;;;;;;;7.05;5.90;;;11.00;99.90;;;;;;5113713;28;20164;-53
2022/12/22 13:24:21;;;;;;;8.73;6.75;;;10.90;99.90;;;;;;5113501;28;20165;-56
2022/12/22 13:26:49;;;;;;;7.68;6.18;;;10.80;99.90;;;;;;5100546;28;20185;-54
2022/12/22 13:29:23;;;;;;;10.80;5.85;;;10.90;99.90;;;;;;5113164;28;20745;-55
2022/12/22 13:32:02;;;;;;;8.27;6.60;;;10.80;99.90;;;;;;5113325;28;20507;-50
2022/12/22 13:34:47;;;;;;;6.60;5.78;;;10.70;99.90;;;;;;5113379;28;20184;-52
2022/12/22 13:37:16;;;;;;;7.40;6.20;;;10.70;99.90;;;;;;5113409;28;20495;-51
2022/12/22 13:39:41;;;;;;;7.75;6.65;;;10.70;99.90;;;;;;5113147;28;20230;-54
2022/12/22 13:42:11;;;;;;;9.13;6.43;;;10.70;99.90;;;;;;5113640;28;20196;-53
2022/12/22 13:44:38;;;;;;;7.60;6.65;;;10.60;99.90;;;;;;5113427;28;20169;-54
2022/12/22 13:47:11;;;;;;;11.10;6.75;;;10.60;99.90;;;;;;5113277;28;20650;-53
2022/12/22 13:49:39;;;;;;;8.88;6.78;;;10.70;99.90;;;;;;5116720;28;20232;-52
2022/12/22 13:52:09;;;;;;;9.25;6.90;;;10.60;99.90;;;;;;5117115;27;20181;-53
2022/12/22 13:54:36;;;;;;;8.52;7.60;;;10.60;99.90;;;;;;5117017;28;20222;-53
2022/12/22 13:57:11;;;;;;;9.52;7.55;;;10.50;99.90;;;;;;5117162;28;20252;-55
2022/12/22 13:59:43;;;;;;;9.05;8.05;;;10.60;99.90;;;;;;5117063;28;20180;-53
2022/12/22 14:02:08;;;;;;;12.32;8.35;;;10.60;99.90;;;;;;5116828;28;20170;-50
2022/12/22 14:04:36;;;;;;;9.77;8.05;;;10.60;99.90;;;;;;5116752;28;20165;-54
2022/12/22 14:07:17;;;;;;;9.35;7.80;;;10.60;99.90;;;;;;5116962;28;20196;-53
2022/12/22 14:09:46;;;;;;;8.18;7.43;;;10.60;99.90;;;;;;5116766;28;20250;-53
2022/12/22 14:12:25;;;;;;;9.35;8.38;;;10.70;99.90;;;;;;5116659;28;20526;-52
2022/12/22 14:14:53;;;;;;;9.52;7.65;;;10.60;99.90;;;;;;5116700;28;20258;-54
2022/12/22 14:17:29;;;;;;;9.93;8.90;;;10.60;99.90;;;;;;5116464;28;20173;-54
2022/12/22 14:20:00;;;;;;;12.25;9.18;;;10.60;99.90;;;;;;5116743;28;20181;-52
2022/12/22 14:22:54;;;;;;;11.70;9.98;;;10.60;99.90;;;;;;5116697;28;20174;-54
2022/12/22 14:25:30;;;;;;;11.10;9.50;;;10.60;99.90;;;;;;5116524;28;20244;-53
2022/12/22 14:27:58;;;;;;;11.80;9.48;;;10.70;99.90;;;;;;5116716;28;20165;-54
2022/12/22 14:30:28;;;;;;;12.88;9.07;;;10.70;99.90;;;;;;5116304;28;20622;-53
2022/12/22 14:32:55;;;;;;;11.40;9.15;;;10.70;99.90;;;;;;5116609;28;20327;-53
2022/12/22 14:35:21;;;;;;;14.20;11.63;;;10.80;99.90;;;;;;5116292;28;20165;-53
2022/12/22 14:37:48;;;;;;;16.85;10.85;;;10.80;99.90;;;;;;5116146;28;20187;-54
2022/12/22 14:40:36;;;;;;;21.02;13.65;;;10.80;99.90;;;;;;5116075;28;21018;-52
2022/12/22 14:43:24;;;;;;;15.10;11.43;;;10.90;99.90;;;;;;5103097;28;20200;-53
2022/12/22 14:45:59;;;;;;;14.45;12.70;;;10.80;99.90;;;;;;5116076;28;20180;-56
2022/12/22 14:48:47;;;;;;;16.35;12.50;;;10.80;99.90;;;;;;5115965;28;20588;-53
2022/12/22 14:51:19;;;;;;;16.17;11.75;;;10.80;99.90;;;;;;5115984;28;20170;-54
2022/12/22 14:53:51;;;;;;;17.17;12.95;;;10.80;99.90;;;;;;5116175;28;20174;-54
2022/12/22 14:56:17;;;;;;;16.55;11.43;;;10.80;99.90;;;;;;5115997;28;20173;-54
2022/12/22 14:58:44;;;;;;;16.20;11.30;;;10.70;99.90;;;;;;5115720;28;20588;-53
2022/12/22 15:01:28;;;;;;;18.40;11.82;;;10.80;99.90;;;;;;5115307;28;20173;-54
2022/12/22 15:03:59;;;;;;;25.55;12.65;;;10.90;99.90;;;;;;5115819;28;20665;-55
2022/12/22 15:06:28;;;;;;;24.67;12.75;;;11.00;99.90;;;;;;5115767;28;20503;-53
2022/12/22 15:09:06;;;;;;;18.70;11.70;;;10.90;99.90;;;;;;5115698;28;20201;-52
2022/12/22 15:11:32;;;;;;;25.45;12.82;;;10.80;99.90;;;;;;5115669;28;20177;-51
2022/12/22 15:14:00;;;;;;;19.15;12.30;;;10.90;99.90;;;;;;5114378;28;20195;-52
2022/12/22 15:16:26;;;;;;;23.20;11.63;;;10.80;99.90;;;;;;5115699;28;20193;-53
2022/12/22 15:18:52;;;;;;;24.00;12.65;;;10.90;99.90;;;;;;5115468;28;20208;-54
2022/12/22 15:21:19;;;;;;;28.85;13.25;;;11.00;99.90;;;;;;5115379;28;20166;-53
2022/12/22 15:23:45;;;;;;;31.98;14.07;;;11.10;99.90;;;;;;5115172;28;20177;-53
2022/12/22 15:26:11;;;;;;;29.80;14.32;;;11.10;99.90;;;;;;5114315;28;20619;-50
2022/12/22 15:28:37;;;;;;;35.28;14.55;;;11.00;99.90;;;;;;5115451;28;20224;-54
2022/12/22 15:31:11;;;;;;;26.77;14.45;;;11.00;99.90;;;;;;5115277;28;20177;-53
2022/12/22 15:33:37;;;;;;;39.63;15.25;;;11.00;99.90;;;;;;5115249;28;20260;-54
2022/12/22 15:36:04;;;;;;;33.47;14.73;;;10.90;99.90;;;;;;5115070;28;20580;-53
2022/12/22 15:38:30;;;;;;;34.15;15.90;;;11.00;99.90;;;;;;5115037;28;20630;-53
2022/12/22 15:40:55;;;;;;;36.15;14.82;;;11.00;99.90;;;;;;5115208;28;20177;-51
2022/12/22 15:43:21;;;;;;;32.53;13.20;;;11.10;99.90;;;;;;5115251;28;20185;-53
2022/12/22 15:45:47;;;;;;;41.90;14.60;;;11.10;99.90;;;;;;5115030;28;20177;-53
2022/12/22 15:48:26;;;;;;;41.67;14.85;;;11.10;99.90;;;;;;5114766;28;20374;-53
2022/12/22 15:50:53;;;;;;;40.65;13.93;;;11.10;99.90;;;;;;5114710;28;20176;-52
2022/12/22 15:53:19;;;;;;;45.30;15.48;;;11.00;99.90;;;;;;5114951;28;20206;-52
2022/12/22 15:55:48;;;;;;;46.97;15.52;;;11.10;99.90;;;;;;5114932;28;20177;-53
2022/12/22 15:58:26;;;;;;;53.58;15.82;;;11.10;99.90;;;;;;5114735;28;20157;-52
2022/12/22 16:00:52;;;;;;;57.50;18.48;;;11.20;99.90;;;;;;5114591;28;20173;-53
2022/12/22 16:03:18;;;;;;;65.72;18.63;;;11.20;99.90;;;;;;5114518;28;20184;-53
2022/12/22 16:05:44;;;;;;;53.00;16.67;;;11.30;99.90;;;;;;5114627;28;20179;-53
2022/12/22 16:08:16;;;;;;;65.40;23.15;;;11.20;99.90;;;;;;5114507;28;20185;-53
2022/12/22 16:10:46;;;;;;;58.55;16.05;;;11.20;99.90;;;;;;5114376;28;20530;-53
2022/12/22 16:13:14;;;;;;;55.25;15.82;;;11.30;99.90;;;;;;5113900;28;20227;-54
2022/12/22 16:15:40;;;;;;;66.05;19.25;;;11.30;99.90;;;;;;5114312;28;20185;-53
2022/12/22 16:18:06;;;;;;;59.28;16.02;;;11.30;99.90;;;;;;5114309;28;20180;-53
2022/12/22 16:20:37;;;;;;;58.92;15.52;;;11.30;99.90;;;;;;5114508;28;20174;-53
2022/12/22 16:23:05;;;;;;;90.47;17.88;;;11.30;99.90;;;;;;5114424;28;20176;-53
2022/12/22 16:25:37;;;;;;;58.60;15.60;;;11.30;99.90;;;;;;5114183;28;20181;-53
2022/12/22 16:28:04;;;;;;;63.63;15.30;;;11.30;99.90;;;;;;5114041;28;20231;-54